Terminal Aerodrome Forecast
Issued by NWS

Home | Current Version | Previous Version | Text Only | Print | Product List | Glossary On
Versions: 1 2 3 4 5 6 7 8 9 10 11 12 13 14 15 16 17 18 19 20 21 22 23 24 25 26 27 28
895
FTUS41 KOKX 010530
TAFGON
TAF
KGON 010530Z 0106/0206 VRB04KT P6SM BKN100
     FM011400 12010KT 6SM -SHRA OVC070
     FM011900 12011KT 4SM -RA OVC040
     FM012100 10012KT 2SM -RA BR OVC015
     FM020000 08012KT 2SM -SHRA BR OVC006
     FM020500 06007KT 2SM -SHRADZ BR OVC003=

USA.gov is the U.S. government's official web portal to all federal, state and local government web resources and services.